Alma, Nebraska
Current Conditions -  °F | °C
As of 1:55 PM on Saturday 25 Oct 2014 (Local Time) from KHDE Reporting Station
Clear Clear  
Wind Chill: 74°   Ceiling: Unl
Heat Index: 74°   Visibility: 10mi
Dew Point: 46°   Wind: 0mph
Humidity: 37%   Direction: NA
Pressure: 30.07"   Gusts: NA
Location:  40.1°N, 99.36°W
Report Text: KHDE 251855Z AUTO 00000KT 10SM CLR 23/08 A3007 RMK AO2 T02330077
Loading
Personal Weather Stations






























Interactive Weather Map
Tropical Storm Tracking
New forecast layout! Learn more

10-Day Weather Forecast

Advertisements
Track Severe Weather on mobile